Time;durP1;ratioP1;P1;durP2;ratioP2;P2;SDS_P1;SDS_P2;PMS_P1;PMS_P2;Temp;Humidity;BMP_temperature;BMP_pressure;BME280_temperature;BME280_humidity;BME280_pressure;Samples;Min_cycle;Max_cycle;Signal;HPM_P1;HPM_P2
2022/04/02 00:02:18;;;;;;;;;5.50;5.50;;;;;;;;5034970;28;11508;-75
2022/04/02 00:04:45;;;;;;;;;6.50;6.00;;;;;;;;5034064;28;12295;-76
2022/04/02 00:07:13;;;;;;;;;11.50;11.50;;;;;;;;5039355;28;13286;-76
2022/04/02 00:09:40;;;;;;;;;9.25;7.75;;;;;;;;5037552;28;12357;-76
2022/04/02 00:12:10;;;;;;;;;6.75;6.00;;;;;;;;5038860;28;11563;-75
2022/04/02 00:14:37;;;;;;;;;9.50;8.25;;;;;;;;5035010;28;11579;-76
2022/04/02 00:17:05;;;;;;;;;16.00;14.00;;;;;;;;5036832;28;11560;-76
2022/04/02 00:19:33;;;;;;;;;12.00;9.00;;;;;;;;5030591;28;11616;-76
2022/04/02 00:22:00;;;;;;;;;9.00;8.50;;;;;;;;5035243;28;11553;-76
2022/04/02 00:24:27;;;;;;;;;8.00;5.75;;;;;;;;5032434;28;11658;-76
2022/04/02 00:26:55;;;;;;;;;8.25;6.75;;;;;;;;5035887;28;11574;-76
2022/04/02 00:29:24;;;;;;;;;1.00;1.00;;;;;;;;5037501;28;11611;-76
2022/04/02 00:31:51;;;;;;;;;5.00;5.00;;;;;;;;5033431;28;11499;-76
2022/04/02 00:34:18;;;;;;;;;7.25;7.25;;;;;;;;5029959;28;11604;-76
2022/04/02 00:36:46;;;;;;;;;6.75;6.75;;;;;;;;5033576;28;12288;-76
2022/04/02 00:39:13;;;;;;;;;7.75;5.00;;;;;;;;5035765;28;11641;-76
2022/04/02 00:41:40;;;;;;;;;11.25;8.50;;;;;;;;5034325;28;12827;-76
2022/04/02 00:44:10;;;;;;;;;8.00;8.00;;;;;;;;5035374;28;11536;-75
2022/04/02 00:46:41;;;;;;;;;4.75;4.50;;;;;;;;5032396;28;11519;-76
2022/04/02 00:49:09;;;;;;;;;4.00;4.00;;;;;;;;5039185;28;11566;-76
2022/04/02 00:51:41;;;;;;;;;5.00;5.00;;;;;;;;5037565;28;11520;-76
2022/04/02 00:54:10;;;;;;;;;5.25;4.00;;;;;;;;5036159;28;11517;-75
2022/04/02 00:56:38;;;;;;;;;5.00;4.00;;;;;;;;5040129;28;12293;-76
2022/04/02 00:59:06;;;;;;;;;5.50;3.00;;;;;;;;5038210;28;12297;-76
2022/04/02 01:01:34;;;;;;;;;5.75;5.75;;;;;;;;5030187;28;12243;-76
2022/04/02 01:04:04;;;;;;;;;4.00;4.00;;;;;;;;5035735;28;12622;-75
2022/04/02 01:06:33;;;;;;;;;4.00;1.75;;;;;;;;5036066;28;11648;-75
2022/04/02 01:09:00;;;;;;;;;4.50;4.50;;;;;;;;5032180;28;11512;-74
2022/04/02 01:11:36;;;;;;;;;6.00;4.67;;;;;;;;5033948;28;11507;-74
2022/04/02 01:14:05;;;;;;;;;4.00;4.00;;;;;;;;5036532;28;11548;-75
2022/04/02 01:16:32;;;;;;;;;2.00;2.00;;;;;;;;5039995;28;11515;-75
2022/04/02 01:19:01;;;;;;;;;7.00;5.25;;;;;;;;5040478;28;11609;-76
2022/04/02 01:21:32;;;;;;;;;6.00;6.00;;;;;;;;5034309;28;11704;-75
2022/04/02 01:24:03;;;;;;;;;6.00;6.00;;;;;;;;5036801;28;11567;-77
2022/04/02 01:26:30;;;;;;;;;4.00;4.00;;;;;;;;5040674;28;11523;-75
2022/04/02 01:28:58;;;;;;;;;5.00;5.00;;;;;;;;5033506;28;11499;-75
2022/04/02 01:31:27;;;;;;;;;4.00;4.00;;;;;;;;5031017;28;12354;-76
2022/04/02 01:33:54;;;;;;;;;6.50;5.00;;;;;;;;5037358;28;11513;-76
2022/04/02 01:36:23;;;;;;;;;4.75;4.75;;;;;;;;5043110;28;11545;-75
2022/04/02 01:38:50;;;;;;;;;4.25;3.00;;;;;;;;5040134;28;11511;-75
2022/04/02 01:41:20;;;;;;;;;2.50;2.50;;;;;;;;5030159;28;11647;-76
2022/04/02 01:43:48;;;;;;;;;8.00;5.50;;;;;;;;5032291;28;11562;-76
2022/04/02 01:46:16;;;;;;;;;5.00;5.00;;;;;;;;5041460;28;11511;-75
2022/04/02 01:48:43;;;;;;;;;6.00;6.00;;;;;;;;5039121;28;11569;-75
2022/04/02 01:51:10;;;;;;;;;4.00;4.00;;;;;;;;5043397;28;11532;-77
2022/04/02 01:53:38;;;;;;;;;12.25;6.75;;;;;;;;5040436;28;11543;-75
2022/04/02 01:56:08;;;;;;;;;10.00;8.33;;;;;;;;5037510;28;11680;-75
2022/04/02 01:58:37;;;;;;;;;19.33;17.00;;;;;;;;5038072;28;11566;-75
2022/04/02 02:01:06;;;;;;;;;16.00;10.00;;;;;;;;5028805;28;11565;-75
2022/04/02 02:03:34;;;;;;;;;9.00;9.00;;;;;;;;5038007;28;11637;-75
2022/04/02 02:06:01;;;;;;;;;4.50;4.50;;;;;;;;5041127;28;11550;-76
2022/04/02 02:08:29;;;;;;;;;12.00;12.00;;;;;;;;5034936;28;11524;-76
2022/04/02 02:10:57;;;;;;;;;13.00;12.33;;;;;;;;5040777;28;11553;-77
2022/04/02 02:13:24;;;;;;;;;9.00;9.00;;;;;;;;5041763;28;11605;-76
2022/04/02 02:15:53;;;;;;;;;13.00;10.00;;;;;;;;5033341;28;12395;-76
2022/04/02 02:18:20;;;;;;;;;9.00;7.33;;;;;;;;5040019;28;11761;-76
2022/04/02 02:20:49;;;;;;;;;9.00;8.00;;;;;;;;5032422;28;11529;-76
2022/04/02 02:23:17;;;;;;;;;8.00;6.00;;;;;;;;5038910;28;11637;-76
2022/04/02 02:25:44;;;;;;;;;10.00;8.33;;;;;;;;5037278;28;11911;-76
2022/04/02 02:28:12;;;;;;;;;8.00;8.00;;;;;;;;5039859;28;11498;-76
2022/04/02 02:30:39;;;;;;;;;14.33;12.33;;;;;;;;5038318;28;11451;-76
2022/04/02 02:35:54;;;;;;;;;9.00;6.67;;;;;;;;5034517;28;11532;-76
2022/04/02 02:38:21;;;;;;;;;7.33;7.33;;;;;;;;5038114;28;11493;-75
2022/04/02 02:40:50;;;;;;;;;12.00;12.00;;;;;;;;5036506;28;11542;-75
2022/04/02 02:43:18;;;;;;;;;15.67;10.33;;;;;;;;5031002;28;8894;-76
2022/04/02 02:45:46;;;;;;;;;6.67;6.67;;;;;;;;5036061;28;8842;-75
2022/04/02 02:48:15;;;;;;;;;8.00;8.00;;;;;;;;5040539;28;11531;-75
2022/04/02 02:50:43;;;;;;;;;10.00;5.67;;;;;;;;5034874;28;11503;-75
2022/04/02 02:53:11;;;;;;;;;7.33;7.33;;;;;;;;5037724;28;8928;-75
2022/04/02 02:55:39;;;;;;;;;8.67;8.67;;;;;;;;5034475;28;8890;-75
2022/04/02 02:58:07;;;;;;;;;8.00;6.00;;;;;;;;5039909;28;11537;-75
2022/04/02 03:00:35;;;;;;;;;11.00;8.00;;;;;;;;5037419;28;8813;-76
2022/04/02 03:03:03;;;;;;;;;9.00;9.00;;;;;;;;5038417;28;8875;-75
2022/04/02 03:05:32;;;;;;;;;13.67;13.00;;;;;;;;5033444;28;8862;-76
2022/04/02 03:08:00;;;;;;;;;10.33;9.00;;;;;;;;5033676;28;8883;-76
2022/04/02 03:10:27;;;;;;;;;9.67;8.00;;;;;;;;5040472;28;8863;-76
2022/04/02 03:12:56;;;;;;;;;9.00;9.00;;;;;;;;5038056;28;8878;-76
2022/04/02 03:15:24;;;;;;;;;12.00;12.00;;;;;;;;5038514;28;8881;-76
2022/04/02 03:17:53;;;;;;;;;10.33;10.33;;;;;;;;5040599;28;8882;-76
2022/04/02 03:20:21;;;;;;;;;13.00;11.33;;;;;;;;5037723;28;8996;-76
2022/04/02 03:22:51;;;;;;;;;9.67;9.67;;;;;;;;5036781;28;8910;-75
2022/04/02 03:25:21;;;;;;;;;9.33;9.33;;;;;;;;5032590;28;8875;-76
2022/04/02 03:27:49;;;;;;;;;8.00;6.33;;;;;;;;5039852;28;8928;-75
2022/04/02 03:30:19;;;;;;;;;12.00;7.67;;;;;;;;5036258;28;8902;-75
2022/04/02 03:32:46;;;;;;;;;8.00;8.00;;;;;;;;5040674;28;8875;-74
2022/04/02 03:35:14;;;;;;;;;9.00;9.00;;;;;;;;5072086;28;8886;-74
2022/04/02 03:37:42;;;;;;;;;11.67;11.67;;;;;;;;5033026;28;8869;-75
2022/04/02 03:40:14;;;;;;;;;8.67;8.67;;;;;;;;5027309;28;8891;-75
2022/04/02 03:42:44;;;;;;;;;8.33;7.67;;;;;;;;5026550;28;8870;-75
2022/04/02 03:45:12;;;;;;;;;8.00;8.00;;;;;;;;5069151;28;8893;-76
2022/04/02 03:47:40;;;;;;;;;8.67;8.67;;;;;;;;5035556;28;8862;-76
2022/04/02 03:50:08;;;;;;;;;6.67;6.67;;;;;;;;5064544;28;9026;-75
2022/04/02 03:52:36;;;;;;;;;11.00;8.67;;;;;;;;5038287;28;8875;-75
2022/04/02 03:55:05;;;;;;;;;8.67;8.00;;;;;;;;5026210;28;10016;-77
2022/04/02 03:57:35;;;;;;;;;8.67;8.67;;;;;;;;5033278;28;8886;-76
2022/04/02 04:00:03;;;;;;;;;14.00;9.00;;;;;;;;5070616;28;9001;-75
2022/04/02 04:02:31;;;;;;;;;7.00;4.33;;;;;;;;5055026;28;9329;-75
2022/04/02 04:04:59;;;;;;;;;9.00;7.67;;;;;;;;5057742;28;8890;-75
2022/04/02 04:07:26;;;;;;;;;11.67;8.67;;;;;;;;5057974;28;8878;-75
2022/04/02 04:09:53;;;;;;;;;11.33;11.33;;;;;;;;5058524;28;8850;-75
2022/04/02 04:12:21;;;;;;;;;18.33;12.00;;;;;;;;5057582;28;8903;-77
2022/04/02 04:14:50;;;;;;;;;9.00;7.00;;;;;;;;5058934;28;8855;-76
2022/04/02 04:17:17;;;;;;;;;18.00;18.00;;;;;;;;5045082;28;9267;-76
2022/04/02 04:19:45;;;;;;;;;9.00;9.00;;;;;;;;5061738;28;8890;-75
2022/04/02 04:22:13;;;;;;;;;11.00;8.33;;;;;;;;5062973;28;8939;-75
2022/04/02 04:24:40;;;;;;;;;15.67;14.67;;;;;;;;5057261;28;8865;-76
2022/04/02 04:27:08;;;;;;;;;15.67;14.33;;;;;;;;5056844;28;8921;-76
2022/04/02 04:29:36;;;;;;;;;7.00;7.00;;;;;;;;5055568;28;9020;-75
2022/04/02 04:32:06;;;;;;;;;12.00;9.00;;;;;;;;5052374;28;9560;-77
2022/04/02 04:34:33;;;;;;;;;8.00;8.00;;;;;;;;5061001;28;8901;-76
2022/04/02 04:37:01;;;;;;;;;10.00;7.00;;;;;;;;5058690;28;8850;-75
2022/04/02 04:39:29;;;;;;;;;15.67;11.00;;;;;;;;5052859;28;8939;-76
2022/04/02 04:41:56;;;;;;;;;8.67;7.33;;;;;;;;5061831;28;8882;-75
2022/04/02 04:44:25;;;;;;;;;8.00;8.00;;;;;;;;5058051;28;8998;-76
2022/04/02 04:46:53;;;;;;;;;11.00;8.00;;;;;;;;5065279;28;8948;-75
2022/04/02 04:49:22;;;;;;;;;12.00;11.00;;;;;;;;5061078;28;8991;-76
2022/04/02 04:51:49;;;;;;;;;9.00;8.33;;;;;;;;5065243;28;8884;-75
2022/04/02 04:54:16;;;;;;;;;4.33;4.33;;;;;;;;5060667;28;8868;-76
2022/04/02 04:56:44;;;;;;;;;7.67;7.67;;;;;;;;5058892;28;8893;-76
2022/04/02 04:59:12;;;;;;;;;4.67;4.67;;;;;;;;5059187;28;8880;-72
2022/04/02 05:01:39;;;;;;;;;11.33;9.00;;;;;;;;5044217;28;8890;-75
2022/04/02 05:04:07;;;;;;;;;9.67;8.00;;;;;;;;5055816;28;8874;-77
2022/04/02 05:06:37;;;;;;;;;7.67;7.67;;;;;;;;5064319;28;9607;-76
2022/04/02 05:09:05;;;;;;;;;14.33;9.67;;;;;;;;5055656;28;8916;-75
2022/04/02 05:11:32;;;;;;;;;9.00;9.00;;;;;;;;5063467;28;8969;-76
2022/04/02 05:13:59;;;;;;;;;9.33;8.00;;;;;;;;5058158;28;8865;-75
2022/04/02 05:16:27;;;;;;;;;10.33;8.00;;;;;;;;5064601;28;8866;-76
2022/04/02 05:18:55;;;;;;;;;8.00;8.00;;;;;;;;5057259;28;8947;-75
2022/04/02 05:21:23;;;;;;;;;7.00;7.00;;;;;;;;5057708;28;8878;-76
2022/04/02 05:23:51;;;;;;;;;8.00;8.00;;;;;;;;5055941;28;8923;-75
2022/04/02 05:26:19;;;;;;;;;7.33;7.33;;;;;;;;5064196;28;8886;-76
2022/04/02 05:28:46;;;;;;;;;3.33;3.33;;;;;;;;5065661;28;8896;-74
2022/04/02 05:31:14;;;;;;;;;8.33;7.67;;;;;;;;5063445;28;8827;-72
2022/04/02 05:33:41;;;;;;;;;9.67;9.67;;;;;;;;5064031;28;9738;-76
2022/04/02 05:36:09;;;;;;;;;5.00;5.00;;;;;;;;5061362;28;9025;-81
2022/04/02 05:38:36;;;;;;;;;11.00;7.00;;;;;;;;5055435;28;8870;-79
2022/04/02 05:41:05;;;;;;;;;5.00;5.00;;;;;;;;5052469;28;8845;-80
2022/04/02 05:43:32;;;;;;;;;11.00;8.00;;;;;;;;5063226;28;8999;-80
2022/04/02 05:46:00;;;;;;;;;7.33;7.00;;;;;;;;5056694;28;8861;-82
2022/04/02 05:48:28;;;;;;;;;12.33;9.00;;;;;;;;5058552;28;8877;-83
2022/04/02 05:50:56;;;;;;;;;8.67;8.67;;;;;;;;5056477;28;8854;-84
2022/04/02 05:53:23;;;;;;;;;11.33;8.67;;;;;;;;5057128;28;8884;-82
2022/04/02 05:55:51;;;;;;;;;9.00;9.00;;;;;;;;5053646;28;8888;-83
2022/04/02 05:58:20;;;;;;;;;11.00;8.33;;;;;;;;5055450;28;8924;-83
2022/04/02 06:00:48;;;;;;;;;14.33;12.00;;;;;;;;5058750;28;8841;-81
2022/04/02 06:03:17;;;;;;;;;22.00;16.67;;;;;;;;5058279;28;8971;-82
2022/04/02 06:05:45;;;;;;;;;15.00;15.00;;;;;;;;5059149;28;8873;-80
2022/04/02 06:08:12;;;;;;;;;8.00;8.00;;;;;;;;5056798;28;8867;-84
2022/04/02 06:14:04;;;;;;;;;11.00;11.00;;;;;;;;5057406;28;8849;-81
2022/04/02 06:16:31;;;;;;;;;14.67;11.67;;;;;;;;5063090;28;8839;-82
2022/04/02 06:18:59;;;;;;;;;8.67;8.67;;;;;;;;5053271;28;8838;-81
2022/04/02 06:21:26;;;;;;;;;10.33;10.33;;;;;;;;5058287;28;8868;-82
2022/04/02 06:23:53;;;;;;;;;15.33;10.33;;;;;;;;5053593;28;8897;-86
2022/04/02 06:26:21;;;;;;;;;14.00;12.00;;;;;;;;5040784;28;8887;-85
2022/04/02 06:28:48;;;;;;;;;10.33;10.33;;;;;;;;5055059;28;8881;-77
2022/04/02 06:31:17;;;;;;;;;22.00;16.67;;;;;;;;5056953;28;8815;-86
2022/04/02 06:33:44;;;;;;;;;13.33;11.33;;;;;;;;5057654;28;8847;-80
2022/04/02 06:36:11;;;;;;;;;15.00;13.33;;;;;;;;5053794;28;8934;-82
2022/04/02 06:38:39;;;;;;;;;8.00;8.00;;;;;;;;5051872;28;8862;-83
2022/04/02 06:41:06;;;;;;;;;11.33;11.33;;;;;;;;5055603;28;9711;-82
2022/04/02 06:43:33;;;;;;;;;7.00;7.00;;;;;;;;5057087;28;9885;-79
2022/04/02 06:46:01;;;;;;;;;17.67;16.00;;;;;;;;5056724;28;8874;-77
2022/04/02 06:48:30;;;;;;;;;14.67;12.00;;;;;;;;5056094;28;8991;-79
2022/04/02 06:51:00;;;;;;;;;13.33;11.00;;;;;;;;5059518;28;8815;-84
2022/04/02 06:53:27;;;;;;;;;11.00;9.00;;;;;;;;5049730;28;8897;-86
2022/04/02 06:55:57;;;;;;;;;6.00;6.00;;;;;;;;5051086;28;8850;-86
2022/04/02 06:58:33;;;;;;;;;9.00;8.00;;;;;;;;5052935;28;8851;-85
2022/04/02 07:01:01;;;;;;;;;11.00;10.33;;;;;;;;5061135;28;8857;-85
2022/04/02 07:03:30;;;;;;;;;8.00;5.33;;;;;;;;5062119;28;9604;-86
2022/04/02 07:05:59;;;;;;;;;12.33;8.00;;;;;;;;5054033;28;8889;-86
2022/04/02 07:08:34;;;;;;;;;9.00;6.67;;;;;;;;5061632;28;8885;-88
2022/04/02 07:11:01;;;;;;;;;12.33;11.00;;;;;;;;5060729;28;8887;-83
2022/04/02 07:13:29;;;;;;;;;5.67;5.00;;;;;;;;5058464;28;8989;-86
2022/04/02 07:16:02;;;;;;;;;9.33;9.33;;;;;;;;5051341;28;11538;-84
2022/04/02 07:18:32;;;;;;;;;6.67;6.00;;;;;;;;5060762;28;9761;-86
2022/04/02 07:21:00;;;;;;;;;9.00;8.00;;;;;;;;5047124;28;11523;-86
2022/04/02 07:23:32;;;;;;;;;15.33;13.33;;;;;;;;5060017;28;11510;-85
2022/04/02 07:25:59;;;;;;;;;14.33;12.00;;;;;;;;5053045;28;8877;-83
2022/04/02 07:28:28;;;;;;;;;13.00;13.00;;;;;;;;5059323;28;11571;-89
2022/04/02 07:30:55;;;;;;;;;10.00;8.33;;;;;;;;5056287;28;11500;-86
2022/04/02 07:33:23;;;;;;;;;14.33;14.33;;;;;;;;5043996;28;11627;-88
2022/04/02 07:35:56;;;;;;;;;9.50;9.50;;;;;;;;5045397;28;11578;-84
2022/04/02 07:38:36;;;;;;;;;9.25;9.25;;;;;;;;5044029;28;11729;-82
2022/04/02 07:41:07;;;;;;;;;24.00;16.67;;;;;;;;5043171;28;11579;-83
2022/04/02 07:43:41;;;;;;;;;10.50;9.25;;;;;;;;5042616;28;11607;-81
2022/04/02 07:46:15;;;;;;;;;5.25;5.25;;;;;;;;5042484;28;11581;-82
2022/04/02 07:48:42;;;;;;;;;10.25;7.75;;;;;;;;5043178;28;11545;-88
2022/04/02 07:51:14;;;;;;;;;9.25;9.25;;;;;;;;5041849;28;11621;-85
2022/04/02 07:53:45;;;;;;;;;12.00;12.00;;;;;;;;5043415;28;11582;-84
2022/04/02 07:56:15;;;;;;;;;8.00;8.00;;;;;;;;5041049;28;11596;-86
2022/04/02 07:58:47;;;;;;;;;9.00;9.00;;;;;;;;5042720;28;11561;-86
2022/04/02 08:01:32;;;;;;;;;5.75;5.75;;;;;;;;5056237;28;11517;-86
2022/04/02 08:04:04;;;;;;;;;6.75;6.00;;;;;;;;5058696;28;11538;-85
2022/04/02 08:06:36;;;;;;;;;5.75;5.75;;;;;;;;5061517;28;11683;-84
2022/04/02 08:09:05;;;;;;;;;9.00;7.00;;;;;;;;5054054;28;12532;-84
2022/04/02 08:11:33;;;;;;;;;6.00;6.00;;;;;;;;5057157;28;11551;-88
2022/04/02 08:14:01;;;;;;;;;6.00;6.00;;;;;;;;5058442;28;12383;-85
2022/04/02 08:16:29;;;;;;;;;11.75;9.00;;;;;;;;5052603;28;11539;-86
2022/04/02 08:18:58;;;;;;;;;5.50;5.50;;;;;;;;5056244;28;11540;-87
2022/04/02 08:21:25;;;;;;;;;7.25;5.75;;;;;;;;5050679;28;11515;-78
2022/04/02 08:23:55;;;;;;;;;11.00;8.00;;;;;;;;5044341;28;11668;-87
2022/04/02 08:26:48;;;;;;;;;2.75;2.75;;;;;;;;5060369;28;11661;-84
2022/04/02 08:29:26;;;;;;;;;7.25;7.25;;;;;;;;5037860;28;11575;-79
2022/04/02 08:32:03;;;;;;;;;8.75;8.75;;;;;;;;5038215;28;11490;-84
2022/04/02 08:34:49;;;;;;;;;5.50;5.50;;;;;;;;5037901;28;11623;-78
2022/04/02 08:37:23;;;;;;;;;3.75;3.75;;;;;;;;5038633;28;11608;-79
2022/04/02 08:39:58;;;;;;;;;3.25;2.00;;;;;;;;5037657;28;11589;-79
2022/04/02 08:43:01;;;;;;;;;2.00;2.00;;;;;;;;5040561;28;11930;-77
2022/04/02 08:45:32;;;;;;;;;10.75;10.75;;;;;;;;4990560;28;11583;-81
2022/04/02 08:48:22;;;;;;;;;5.50;5.50;;;;;;;;5055214;28;12356;-80
2022/04/02 08:50:54;;;;;;;;;6.25;6.25;;;;;;;;5047876;28;11632;-77
2022/04/02 08:53:25;;;;;;;;;6.00;6.00;;;;;;;;5057225;28;11526;-78
2022/04/02 08:56:03;;;;;;;;;5.50;5.50;;;;;;;;5057393;28;12211;-77
2022/04/02 08:58:50;;;;;;;;;10.75;9.50;;;;;;;;5054060;28;11520;-77
2022/04/02 09:01:25;;;;;;;;;6.00;6.00;;;;;;;;5050713;28;11537;-78
2022/04/02 09:04:31;;;;;;;;;10.50;5.00;;;;;;;;5065136;28;11562;-78
2022/04/02 09:07:37;;;;;;;;;6.00;6.00;;;;;;;;5055186;28;11564;-79
2022/04/02 09:10:44;;;;;;;;;6.75;5.00;;;;;;;;5056353;28;11645;-77
2022/04/02 09:13:44;;;;;;;;;5.25;5.00;;;;;;;;5053128;28;11561;-82
2022/04/02 09:16:21;;;;;;;;;3.00;3.00;;;;;;;;5058993;28;11546;-82
2022/04/02 09:19:09;;;;;;;;;8.00;7.00;;;;;;;;5055178;28;11580;-78
2022/04/02 09:21:49;;;;;;;;;6.50;6.50;;;;;;;;5048669;28;11550;-79
2022/04/02 09:24:31;;;;;;;;;5.75;5.75;;;;;;;;5055339;28;11530;-83
2022/04/02 09:27:34;;;;;;;;;8.50;3.50;;;;;;;;5056760;28;11570;-81
2022/04/02 09:30:11;;;;;;;;;3.00;3.00;;;;;;;;5032520;28;11533;-80
2022/04/02 09:33:02;;;;;;;;;5.00;3.00;;;;;;;;5055657;28;12496;-80
2022/04/02 09:35:42;;;;;;;;;3.00;3.00;;;;;;;;5056780;28;11490;-82
2022/04/02 09:38:37;;;;;;;;;1.00;1.00;;;;;;;;5047681;28;11562;-80
2022/04/02 09:41:14;;;;;;;;;2.75;2.75;;;;;;;;5056007;28;11529;-83
2022/04/02 09:43:50;;;;;;;;;0.00;0.00;;;;;;;;5056171;28;11556;-79
2022/04/02 09:46:48;;;;;;;;;3.50;2.00;;;;;;;;5050464;28;11459;-78
2022/04/02 09:49:23;;;;;;;;;4.50;4.50;;;;;;;;5051790;28;11554;-82
2022/04/02 09:52:00;;;;;;;;;2.25;2.00;;;;;;;;5056467;28;11622;-81
2022/04/02 09:54:36;;;;;;;;;1.00;1.00;;;;;;;;5056924;28;11462;-81
2022/04/02 09:57:09;;;;;;;;;2.00;2.00;;;;;;;;5059933;28;11476;-82
2022/04/02 09:59:51;;;;;;;;;1.00;1.00;;;;;;;;5056530;28;11479;-85
2022/04/02 10:02:32;;;;;;;;;3.50;2.00;;;;;;;;5052563;28;11451;-84
2022/04/02 10:05:07;;;;;;;;;1.75;1.75;;;;;;;;5049549;28;11464;-80
2022/04/02 10:07:45;;;;;;;;;2.00;2.00;;;;;;;;5054370;28;12189;-82
2022/04/02 10:10:13;;;;;;;;;1.00;1.00;;;;;;;;5062582;28;11448;-87
2022/04/02 10:12:43;;;;;;;;;2.00;2.00;;;;;;;;5050512;28;11526;-84
2022/04/02 10:15:11;;;;;;;;;2.00;2.00;;;;;;;;5052596;28;11463;-84
2022/04/02 10:17:41;;;;;;;;;2.75;2.75;;;;;;;;5057766;28;11487;-84
2022/04/02 10:20:10;;;;;;;;;2.25;2.25;;;;;;;;5060452;28;12190;-85
2022/04/02 10:22:43;;;;;;;;;5.25;3.00;;;;;;;;5043141;28;11541;-80
2022/04/02 10:25:13;;;;;;;;;5.00;5.00;;;;;;;;5057187;28;11466;-81
2022/04/02 10:27:42;;;;;;;;;3.00;3.00;;;;;;;;5059883;28;11488;-79
2022/04/02 10:30:11;;;;;;;;;5.25;5.25;;;;;;;;5055698;28;11504;-83
2022/04/02 10:32:55;;;;;;;;;5.25;2.25;;;;;;;;5058510;28;11511;-82
2022/04/02 10:35:23;;;;;;;;;3.00;3.00;;;;;;;;5053932;28;11475;-81
2022/04/02 10:38:06;;;;;;;;;4.25;3.50;;;;;;;;5056898;28;12018;-82
2022/04/02 10:40:37;;;;;;;;;2.25;2.25;;;;;;;;5054899;28;12641;-78
2022/04/02 10:43:06;;;;;;;;;5.25;3.00;;;;;;;;5058095;28;11479;-85
2022/04/02 10:45:36;;;;;;;;;5.00;2.50;;;;;;;;5057307;28;11989;-81
2022/04/02 10:48:10;;;;;;;;;2.00;2.00;;;;;;;;5058136;28;11785;-87
2022/04/02 10:50:39;;;;;;;;;2.00;2.00;;;;;;;;5053586;28;12053;-80
2022/04/02 10:53:07;;;;;;;;;3.00;3.00;;;;;;;;5049186;28;11505;-82
2022/04/02 10:55:35;;;;;;;;;2.00;2.00;;;;;;;;5056270;28;11132;-89
2022/04/02 10:58:03;;;;;;;;;3.00;3.00;;;;;;;;5060464;28;10984;-85
2022/04/02 11:00:31;;;;;;;;;4.25;3.00;;;;;;;;5055072;28;11277;-82
2022/04/02 11:03:04;;;;;;;;;6.00;6.00;;;;;;;;5052179;28;10844;-76
2022/04/02 11:05:37;;;;;;;;;6.50;3.00;;;;;;;;5060752;28;11025;-82
2022/04/02 11:08:06;;;;;;;;;3.00;3.00;;;;;;;;5051193;28;10963;-80
2022/04/02 11:10:36;;;;;;;;;2.00;2.00;;;;;;;;5046531;28;10989;-81
2022/04/02 11:13:06;;;;;;;;;2.25;2.25;;;;;;;;5052323;28;10970;-81
2022/04/02 11:15:41;;;;;;;;;2.50;2.50;;;;;;;;5050568;28;11006;-82
2022/04/02 11:18:17;;;;;;;;;5.00;5.00;;;;;;;;5046677;28;10951;-82
2022/04/02 11:20:46;;;;;;;;;7.00;6.00;;;;;;;;5061087;28;11060;-83
2022/04/02 11:23:16;;;;;;;;;5.75;3.00;;;;;;;;5056340;28;11237;-81
2022/04/02 11:25:49;;;;;;;;;3.00;3.00;;;;;;;;5058183;28;11072;-83
2022/04/02 11:28:17;;;;;;;;;2.00;2.00;;;;;;;;5052186;28;11243;-80
2022/04/02 11:30:47;;;;;;;;;8.25;6.75;;;;;;;;5052753;28;12193;-81
2022/04/02 11:33:16;;;;;;;;;2.50;0.75;;;;;;;;5055376;28;11570;-83
2022/04/02 11:35:48;;;;;;;;;10.00;7.00;;;;;;;;5057601;28;11544;-82
2022/04/02 11:38:34;;;;;;;;;3.00;3.00;;;;;;;;5059567;28;11471;-76
2022/04/02 11:41:51;;;;;;;;;3.00;3.00;;;;;;;;5051135;28;11502;-81
2022/04/02 11:44:18;;;;;;;;;3.00;3.00;;;;;;;;5059580;28;11520;-81
2022/04/02 11:46:54;;;;;;;;;2.50;2.50;;;;;;;;5059700;28;11476;-82
2022/04/02 11:49:27;;;;;;;;;4.00;4.00;;;;;;;;5057781;28;11159;-82
2022/04/02 11:52:04;;;;;;;;;3.50;3.00;;;;;;;;5058603;28;11223;-81
2022/04/02 11:54:33;;;;;;;;;7.00;5.00;;;;;;;;5060755;28;11126;-81
2022/04/02 11:57:11;;;;;;;;;7.50;7.00;;;;;;;;5050350;28;11071;-81
2022/04/02 11:59:38;;;;;;;;;7.00;5.00;;;;;;;;5048370;28;11151;-82
2022/04/02 12:02:06;;;;;;;;;5.50;2.50;;;;;;;;5043578;28;11107;-83
2022/04/02 12:04:35;;;;;;;;;3.50;3.50;;;;;;;;5038792;28;11532;-81
2022/04/02 12:07:08;;;;;;;;;1.25;1.25;;;;;;;;5037587;28;11517;-76
2022/04/02 12:09:35;;;;;;;;;5.00;5.00;;;;;;;;5033777;28;11441;-76
2022/04/02 12:12:06;;;;;;;;;4.00;4.00;;;;;;;;5031907;28;11416;-83
2022/04/02 12:14:36;;;;;;;;;3.00;3.00;;;;;;;;5026385;28;11453;-80
2022/04/02 12:17:10;;;;;;;;;2.00;2.00;;;;;;;;5033575;28;11541;-80
2022/04/02 12:19:42;;;;;;;;;6.00;3.50;;;;;;;;5038474;28;11477;-80
2022/04/02 12:22:27;;;;;;;;;2.00;2.00;;;;;;;;5028499;28;11433;-80
2022/04/02 12:38:28;;;;;;;;;5.50;5.50;;;;;;;;4973501;28;11221;-80
2022/04/02 12:40:57;;;;;;;;;4.00;4.00;;;;;;;;4977223;28;11858;-80
2022/04/02 12:43:29;;;;;;;;;4.00;4.00;;;;;;;;5007302;28;11460;-81
2022/04/02 12:45:58;;;;;;;;;6.00;6.00;;;;;;;;5030179;28;11698;-80
2022/04/02 12:48:26;;;;;;;;;5.00;5.00;;;;;;;;5028575;28;11464;-82
2022/04/02 12:50:58;;;;;;;;;6.25;5.00;;;;;;;;5036212;28;11492;-83
2022/04/02 12:53:37;;;;;;;;;7.00;7.00;;;;;;;;5040354;28;11195;-82
2022/04/02 12:56:07;;;;;;;;;5.75;5.75;;;;;;;;5034142;28;11910;-82
2022/04/02 12:58:37;;;;;;;;;10.75;8.00;;;;;;;;5032303;28;10981;-81
2022/04/02 13:01:16;;;;;;;;;7.50;5.00;;;;;;;;5035720;28;10967;-81
2022/04/02 13:03:45;;;;;;;;;5.50;5.00;;;;;;;;5037885;28;11099;-81
2022/04/02 13:06:24;;;;;;;;;4.75;4.75;;;;;;;;5030937;28;10970;-80
2022/04/02 13:09:04;;;;;;;;;7.75;6.00;;;;;;;;5037307;28;11125;-80
2022/04/02 13:11:58;;;;;;;;;3.00;3.00;;;;;;;;5041793;28;11119;-81
2022/04/02 13:14:27;;;;;;;;;7.00;7.00;;;;;;;;5024718;28;10921;-80
2022/04/02 13:17:07;;;;;;;;;7.00;7.00;;;;;;;;5037282;28;11767;-79
2022/04/02 13:22:30;;;;;;;;;6.25;6.25;;;;;;;;5029086;28;11086;-77
2022/04/02 13:25:00;;;;;;;;;6.00;6.00;;;;;;;;5037630;28;11051;-78
2022/04/02 13:28:10;;;;;;;;;6.00;6.00;;;;;;;;5034515;28;11208;-81
2022/04/02 13:30:39;;;;;;;;;6.50;6.50;;;;;;;;5033294;28;11107;-78
2022/04/02 13:33:30;;;;;;;;;6.00;6.00;;;;;;;;5031715;28;11132;-79
2022/04/02 13:36:04;;;;;;;;;7.50;7.50;;;;;;;;5033454;28;11091;-83
2022/04/02 13:38:52;;;;;;;;;5.75;5.75;;;;;;;;5038385;28;10989;-82
2022/04/02 13:41:28;;;;;;;;;6.00;6.00;;;;;;;;5038236;28;11217;-82
2022/04/02 13:43:58;;;;;;;;;10.00;7.75;;;;;;;;5036992;28;11256;-82
2022/04/02 13:46:28;;;;;;;;;16.75;12.50;;;;;;;;5035472;28;11460;-82
2022/04/02 13:49:01;;;;;;;;;7.00;7.00;;;;;;;;5041663;28;11535;-81
2022/04/02 13:51:41;;;;;;;;;7.00;7.00;;;;;;;;5034056;28;11489;-81
2022/04/02 13:54:10;;;;;;;;;5.75;5.75;;;;;;;;5038094;28;11459;-82
2022/04/02 13:56:40;;;;;;;;;9.50;7.00;;;;;;;;5031665;28;11571;-79
2022/04/02 13:59:09;;;;;;;;;8.25;8.25;;;;;;;;5037918;28;11459;-83
2022/04/02 14:01:53;;;;;;;;;11.00;10.50;;;;;;;;5034030;28;11457;-85
2022/04/02 14:04:32;;;;;;;;;7.00;7.00;;;;;;;;5040246;28;11592;-90
2022/04/02 14:07:02;;;;;;;;;7.50;6.25;;;;;;;;5033906;28;11484;-84
2022/04/02 14:09:31;;;;;;;;;10.00;8.00;;;;;;;;5029727;28;11147;-83
2022/04/02 14:12:05;;;;;;;;;6.25;5.75;;;;;;;;5028936;28;10956;-77
2022/04/02 14:14:38;;;;;;;;;6.75;6.75;;;;;;;;5037762;28;11010;-80
2022/04/02 14:17:08;;;;;;;;;7.00;7.00;;;;;;;;5035935;28;10816;-76
2022/04/02 14:19:49;;;;;;;;;7.50;7.00;;;;;;;;5028445;28;10868;-79
2022/04/02 14:22:23;;;;;;;;;7.00;7.00;;;;;;;;5038209;28;11791;-75
2022/04/02 14:24:58;;;;;;;;;8.00;8.00;;;;;;;;5032096;28;12116;-82
2022/04/02 14:27:44;;;;;;;;;8.00;8.00;;;;;;;;5032965;28;11565;-81
2022/04/02 14:30:21;;;;;;;;;6.25;5.25;;;;;;;;5031494;28;11496;-77
2022/04/02 14:33:21;;;;;;;;;3.00;3.00;;;;;;;;5030043;28;11474;-82
2022/04/02 14:36:24;;;;;;;;;5.75;5.75;;;;;;;;5029890;28;12299;-80
2022/04/02 14:39:24;;;;;;;;;6.00;6.00;;;;;;;;5037133;28;11977;-80
2022/04/02 14:42:03;;;;;;;;;5.75;5.75;;;;;;;;5032944;28;11086;-80
2022/04/02 14:44:57;;;;;;;;;7.00;7.00;;;;;;;;5034972;28;11920;-82
2022/04/02 14:48:08;;;;;;;;;7.00;7.00;;;;;;;;5036307;28;11990;-82
2022/04/02 14:51:06;;;;;;;;;8.25;6.25;;;;;;;;5034823;28;11570;-80
2022/04/02 14:53:57;;;;;;;;;10.00;10.00;;;;;;;;5038089;28;11466;-82
2022/04/02 14:56:54;;;;;;;;;7.75;7.75;;;;;;;;5032038;28;11496;-83
2022/04/02 14:59:46;;;;;;;;;8.75;8.75;;;;;;;;5030499;28;11474;-76
2022/04/02 15:03:00;;;;;;;;;8.50;8.50;;;;;;;;5034237;28;11563;-80
2022/04/02 15:05:55;;;;;;;;;8.00;8.00;;;;;;;;5006554;28;11407;-84
2022/04/02 15:09:08;;;;;;;;;6.00;6.00;;;;;;;;5022702;28;11491;-82
2022/04/02 15:11:55;;;;;;;;;5.75;5.00;;;;;;;;4946838;28;11527;-81
2022/04/02 15:14:28;;;;;;;;;7.25;5.75;;;;;;;;5035253;28;11590;-78
2022/04/02 15:16:56;;;;;;;;;6.50;6.50;;;;;;;;5023235;28;11453;-86
2022/04/02 15:19:27;;;;;;;;;9.50;7.25;;;;;;;;5033168;28;12116;-80
2022/04/02 15:21:55;;;;;;;;;11.00;10.00;;;;;;;;5031868;28;11459;-83
2022/04/02 15:24:25;;;;;;;;;10.00;10.00;;;;;;;;5032155;28;11494;-85
2022/04/02 15:26:54;;;;;;;;;18.75;15.00;;;;;;;;5028285;28;11606;-81
2022/04/02 15:29:31;;;;;;;;;25.50;21.00;;;;;;;;5036748;28;11527;-85
2022/04/02 15:32:00;;;;;;;;;9.25;9.25;;;;;;;;5034913;28;11560;-80
2022/04/02 15:34:30;;;;;;;;;13.50;12.00;;;;;;;;5035848;28;11596;-87
2022/04/02 15:37:03;;;;;;;;;6.50;6.50;;;;;;;;5038029;28;11500;-83